createdAt,value
2019-02-24T00:02:36.982Z,28.40
2019-02-24T00:05:29.509Z,28.40
2019-02-24T00:08:21.781Z,28.40
2019-02-24T00:11:14.077Z,28.40
2019-02-24T00:14:06.187Z,28.50
2019-02-24T00:16:58.591Z,28.40
2019-02-24T00:19:50.854Z,28.40
2019-02-24T00:22:43.007Z,28.50
2019-02-24T00:25:35.486Z,28.40
2019-02-24T00:28:28.094Z,28.40
2019-02-24T00:31:20.536Z,28.50
2019-02-24T00:34:12.611Z,28.40
2019-02-24T00:37:04.903Z,28.40
2019-02-24T00:39:57.574Z,28.40
2019-02-24T00:42:49.678Z,28.40
2019-02-24T00:45:41.934Z,28.40
2019-02-24T00:48:34.417Z,28.40
2019-02-24T00:51:26.627Z,28.40
2019-02-24T00:54:19.040Z,28.40
2019-02-24T00:57:11.610Z,28.40
2019-02-24T01:00:03.616Z,28.40
2019-02-24T01:02:56.607Z,28.40
2019-02-24T01:05:49.032Z,28.40
2019-02-24T01:08:41.371Z,28.40
2019-02-24T01:11:34.134Z,28.40
2019-02-24T01:14:26.261Z,28.40
2019-02-24T01:17:18.265Z,28.40
2019-02-24T01:20:10.803Z,28.40
2019-02-24T01:23:02.879Z,28.40
2019-02-24T01:25:54.976Z,28.40
2019-02-24T01:28:47.291Z,28.40
2019-02-24T01:31:39.455Z,28.40
2019-02-24T01:34:31.363Z,28.30
2019-02-24T01:37:23.836Z,28.40
2019-02-24T01:40:16.367Z,28.40
2019-02-24T01:43:08.700Z,28.40
2019-02-24T01:46:01.398Z,28.40
2019-02-24T01:48:54.009Z,28.30
2019-02-24T01:51:46.248Z,28.30
2019-02-24T01:54:39.819Z,28.30
2019-02-24T01:57:32.201Z,28.30
2019-02-24T02:00:24.701Z,28.30
2019-02-24T02:03:17.370Z,28.30
2019-02-24T02:06:09.603Z,28.40
2019-02-24T02:09:02.194Z,28.30
2019-02-24T02:11:55.904Z,28.30
2019-02-24T02:14:49.278Z,28.30
2019-02-24T02:17:41.670Z,28.30
2019-02-24T02:20:34.062Z,28.30
2019-02-24T02:23:27.246Z,28.40
2019-02-24T02:26:19.654Z,28.40
2019-02-24T02:29:11.578Z,28.40
2019-02-24T02:32:03.907Z,28.30
2019-02-24T02:34:56.218Z,28.30
2019-02-24T02:37:48.356Z,28.30
2019-02-24T02:40:41.931Z,28.30
2019-02-24T02:43:34.056Z,28.30
2019-02-24T02:46:26.620Z,28.30
2019-02-24T02:49:18.724Z,28.30
2019-02-24T02:52:10.942Z,28.30
2019-02-24T02:55:03.075Z,28.40
2019-02-24T02:57:55.379Z,28.30
2019-02-24T03:00:47.467Z,28.30
2019-02-24T03:03:39.704Z,28.30
2019-02-24T03:06:43.593Z,28.40
2019-02-24T03:09:35.758Z,28.30
2019-02-24T03:12:28.593Z,28.30
2019-02-24T03:15:20.819Z,28.30
2019-02-24T03:18:13.403Z,28.30
2019-02-24T03:21:05.718Z,28.30
2019-02-24T03:23:58.485Z,28.30
2019-02-24T03:26:50.999Z,28.40
2019-02-24T03:29:43.732Z,28.30
2019-02-24T03:32:35.943Z,28.30
2019-02-24T03:35:28.880Z,28.40
2019-02-24T03:38:21.538Z,28.40
2019-02-24T03:41:13.911Z,28.30
2019-02-24T03:44:06.350Z,28.30
2019-02-24T03:46:58.888Z,28.30
2019-02-24T03:49:51.620Z,28.40
2019-02-24T03:52:43.888Z,28.40
2019-02-24T03:55:36.841Z,28.40
2019-02-24T03:58:29.571Z,28.30
2019-02-24T04:01:22.121Z,28.30
2019-02-24T04:04:14.185Z,28.40
2019-02-24T04:07:06.454Z,28.40
2019-02-24T04:09:59.147Z,28.40
2019-02-24T04:12:51.092Z,28.40
2019-02-24T04:15:43.504Z,28.40
2019-02-24T04:18:35.831Z,28.40
2019-02-24T04:21:28.624Z,28.40
2019-02-24T04:24:21.144Z,28.40
2019-02-24T04:27:13.664Z,28.40
2019-02-24T04:30:05.799Z,28.40
2019-02-24T04:32:58.648Z,28.40
2019-02-24T04:35:51.088Z,28.40
2019-02-24T04:38:43.802Z,28.40
2019-02-24T04:41:36.364Z,28.40
2019-02-24T04:44:31.964Z,28.40
2019-02-24T04:47:24.186Z,28.40
2019-02-24T04:50:16.559Z,28.40
2019-02-24T04:53:08.519Z,28.40
2019-02-24T04:56:00.894Z,28.40
2019-02-24T04:58:53.203Z,28.40
2019-02-24T05:01:45.245Z,28.40
2019-02-24T05:04:37.733Z,28.40
2019-02-24T05:07:29.943Z,28.30
2019-02-24T05:10:22.213Z,28.40
2019-02-24T05:13:14.555Z,28.30
2019-02-24T05:16:06.933Z,28.40
2019-02-24T05:18:59.240Z,28.30
2019-02-24T05:21:51.191Z,28.30
2019-02-24T05:24:43.621Z,28.40
2019-02-24T05:27:36.082Z,28.30
2019-02-24T05:30:28.158Z,28.30
2019-02-24T05:33:20.492Z,28.30
2019-02-24T05:36:12.753Z,28.30
2019-02-24T05:39:04.768Z,28.30
2019-02-24T05:41:56.739Z,28.30
2019-02-24T05:44:49.142Z,28.30
2019-02-24T05:47:41.787Z,28.30
2019-02-24T05:50:34.044Z,28.30
2019-02-24T05:53:27.295Z,28.30
2019-02-24T05:56:20.342Z,28.30
2019-02-24T05:59:14.018Z,28.30
2019-02-24T06:02:06.748Z,28.30
2019-02-24T06:04:59.022Z,28.30
2019-02-24T06:07:52.204Z,28.30
2019-02-24T06:10:44.646Z,28.30
2019-02-24T06:13:37.342Z,28.30
2019-02-24T06:16:30.115Z,28.30
2019-02-24T06:19:22.322Z,28.30
2019-02-24T06:22:15.257Z,28.30
2019-02-24T06:25:07.722Z,28.40
2019-02-24T06:28:00.501Z,28.30
2019-02-24T06:30:53.800Z,28.30
2019-02-24T06:33:46.232Z,28.30
2019-02-24T06:36:38.518Z,28.30
2019-02-24T06:39:31.042Z,28.40
2019-02-24T06:42:23.895Z,28.30
2019-02-24T06:45:16.862Z,28.30
2019-02-24T06:48:09.975Z,28.30
2019-02-24T06:51:07.970Z,28.30
2019-02-24T06:54:00.193Z,28.30
2019-02-24T06:56:52.191Z,28.40
2019-02-24T06:59:44.431Z,28.30
2019-02-24T07:02:37.415Z,28.30
2019-02-24T07:05:29.703Z,28.30
2019-02-24T07:08:21.837Z,28.30
2019-02-24T07:11:13.946Z,28.30
2019-02-24T07:14:06.503Z,28.30
2019-02-24T07:16:59.839Z,28.30
2019-02-24T07:19:52.215Z,28.30
2019-02-24T07:22:44.248Z,28.30
2019-02-24T07:25:36.509Z,28.30
2019-02-24T07:28:28.790Z,28.30
2019-02-24T07:31:21.114Z,28.30
2019-02-24T07:34:13.550Z,28.40
2019-02-24T07:37:12.761Z,28.30
2019-02-24T07:40:01.040Z,28.30
2019-02-24T07:42:54.252Z,28.30
2019-02-24T07:45:46.591Z,28.30
2019-02-24T07:48:39.354Z,28.30
2019-02-24T07:51:31.520Z,28.40
2019-02-24T07:54:24.023Z,28.40
2019-02-24T07:57:16.459Z,28.40
2019-02-24T08:00:09.226Z,28.40
2019-02-24T08:03:01.867Z,28.40
2019-02-24T08:05:54.385Z,28.30
2019-02-24T08:08:47.219Z,28.40
2019-02-24T08:11:39.383Z,28.40
2019-02-24T08:14:31.367Z,28.40
2019-02-24T08:17:23.828Z,28.40
2019-02-24T08:20:16.205Z,28.40
2019-02-24T08:23:08.251Z,28.40
2019-02-24T08:26:00.476Z,28.40
2019-02-24T08:28:52.592Z,28.40
2019-02-24T08:31:44.594Z,28.40
2019-02-24T08:34:37.277Z,28.40
2019-02-24T08:37:29.358Z,28.40
2019-02-24T08:40:21.682Z,28.40
2019-02-24T08:43:15.226Z,28.40
2019-02-24T08:46:07.831Z,28.40
2019-02-24T08:49:00.251Z,28.40
2019-02-24T08:51:52.873Z,28.40
2019-02-24T08:54:45.202Z,28.40
2019-02-24T08:57:38.157Z,28.40
2019-02-24T09:00:31.115Z,28.40
2019-02-24T09:03:23.537Z,28.40
2019-02-24T09:06:17.286Z,28.40
2019-02-24T09:09:10.332Z,28.40
2019-02-24T09:12:02.675Z,28.40
2019-02-24T09:14:55.501Z,28.40
2019-02-24T09:17:48.271Z,28.40
2019-02-24T09:20:41.830Z,28.40
2019-02-24T09:23:34.982Z,28.40
2019-02-24T09:26:27.421Z,28.50
2019-02-24T09:29:20.442Z,28.40
2019-02-24T09:32:12.722Z,28.40
2019-02-24T09:35:05.477Z,28.50
2019-02-24T09:37:58.612Z,28.50
2019-02-24T09:40:51.613Z,28.50
2019-02-24T09:43:44.258Z,28.50
2019-02-24T09:46:36.852Z,28.50
2019-02-24T09:49:30.466Z,28.50
2019-02-24T09:52:23.023Z,28.50
2019-02-24T09:55:16.115Z,28.50
2019-02-24T09:58:08.839Z,28.50
2019-02-24T10:01:10.242Z,28.50
2019-02-24T10:03:57.490Z,28.50
2019-02-24T10:06:49.762Z,28.50
2019-02-24T10:09:43.217Z,28.50
2019-02-24T10:12:36.267Z,28.50
2019-02-24T10:15:28.760Z,28.50
2019-02-24T10:18:20.923Z,28.60
2019-02-24T10:21:13.530Z,28.60
2019-02-24T10:24:06.556Z,28.60
2019-02-24T10:26:59.254Z,28.60
2019-02-24T10:29:51.865Z,28.60
2019-02-24T10:32:45.074Z,28.60
2019-02-24T10:35:37.405Z,28.60
2019-02-24T10:38:29.644Z,28.60
2019-02-24T10:41:22.423Z,28.70
2019-02-24T10:44:14.939Z,28.70
2019-02-24T10:47:07.471Z,28.70
2019-02-24T10:50:00.056Z,28.70
2019-02-24T10:52:52.515Z,28.70
2019-02-24T10:55:45.177Z,28.70
2019-02-24T10:58:37.291Z,28.70
2019-02-24T11:01:30.159Z,28.70
2019-02-24T11:04:22.942Z,28.70
2019-02-24T11:07:15.251Z,28.70
2019-02-24T11:10:07.985Z,28.70
2019-02-24T11:13:00.459Z,28.70
2019-02-24T11:15:52.538Z,28.70
2019-02-24T11:18:44.877Z,28.70
2019-02-24T11:21:37.280Z,28.70
2019-02-24T11:24:30.023Z,28.70
2019-02-24T11:27:22.525Z,28.70
2019-02-24T11:30:14.991Z,28.70
2019-02-24T11:33:07.799Z,28.70
2019-02-24T11:36:00.485Z,28.70
2019-02-24T11:38:53.011Z,28.70
2019-02-24T11:41:45.254Z,28.70
2019-02-24T11:44:38.009Z,28.70
2019-02-24T11:47:30.725Z,28.70
2019-02-24T11:50:23.689Z,28.70
2019-02-24T11:53:16.195Z,28.70
2019-02-24T11:56:09.282Z,28.70
2019-02-24T11:59:01.927Z,28.70
2019-02-24T12:01:55.434Z,28.70
2019-02-24T12:04:48.484Z,28.70
2019-02-24T12:07:41.210Z,28.70
2019-02-24T12:10:34.003Z,28.70
2019-02-24T12:13:26.815Z,28.70
2019-02-24T12:16:19.330Z,28.70
2019-02-24T12:19:12.413Z,28.70
2019-02-24T12:22:05.111Z,28.70
2019-02-24T12:24:57.853Z,28.70
2019-02-24T12:27:50.403Z,28.70
2019-02-24T12:30:43.162Z,28.70
2019-02-24T12:33:36.102Z,28.70
2019-02-24T12:36:28.819Z,28.70
2019-02-24T12:39:21.085Z,28.70
2019-02-24T12:42:13.979Z,28.70
2019-02-24T12:45:06.184Z,28.70
2019-02-24T12:48:00.402Z,28.70
2019-02-24T12:50:53.128Z,28.70
2019-02-24T12:53:46.639Z,28.70
2019-02-24T12:56:39.608Z,28.70
2019-02-24T12:59:32.015Z,28.70
2019-02-24T13:02:25.192Z,28.70
2019-02-24T13:05:18.093Z,28.70
2019-02-24T13:08:11.110Z,28.70
2019-02-24T13:11:03.521Z,28.70
2019-02-24T13:13:56.341Z,28.70
2019-02-24T13:16:49.368Z,28.80
2019-02-24T13:19:41.600Z,28.80
2019-02-24T13:22:34.758Z,28.70
2019-02-24T13:25:27.706Z,28.80
2019-02-24T13:28:20.257Z,28.70
2019-02-24T13:31:12.802Z,28.80
2019-02-24T13:34:05.668Z,28.80
2019-02-24T13:36:58.705Z,28.80
2019-02-24T13:39:51.517Z,28.80
2019-02-24T13:42:43.995Z,28.80
2019-02-24T13:45:36.500Z,28.80
2019-02-24T13:48:29.029Z,28.80
2019-02-24T13:51:22.725Z,28.80
2019-02-24T13:54:15.058Z,28.80
2019-02-24T13:57:07.306Z,28.80
2019-02-24T13:59:59.951Z,28.80
2019-02-24T14:02:53.137Z,28.80
2019-02-24T14:05:46.280Z,28.80
2019-02-24T14:08:38.582Z,28.80
2019-02-24T14:11:32.058Z,28.80
2019-02-24T14:14:24.333Z,28.80
2019-02-24T14:17:16.772Z,28.80
2019-02-24T14:20:09.373Z,28.80
2019-02-24T14:23:01.520Z,28.80
2019-02-24T14:25:53.671Z,28.80
2019-02-24T14:28:45.891Z,28.80
2019-02-24T14:31:38.352Z,28.80
2019-02-24T14:34:30.456Z,28.80
2019-02-24T14:37:22.464Z,28.80
2019-02-24T14:40:14.742Z,28.80
2019-02-24T14:43:06.823Z,28.80
2019-02-24T14:45:59.500Z,28.80
2019-02-24T14:48:52.109Z,28.80
2019-02-24T14:51:44.249Z,28.80
2019-02-24T14:54:36.839Z,28.80
2019-02-24T14:57:29.131Z,28.80
2019-02-24T15:00:21.892Z,28.80
2019-02-24T15:03:16.270Z,28.80
2019-02-24T15:06:08.949Z,28.80
2019-02-24T15:09:01.464Z,28.80
2019-02-24T15:11:55.685Z,28.80
2019-02-24T15:14:47.873Z,28.80
2019-02-24T15:17:40.458Z,28.80
2019-02-24T15:20:33.069Z,28.80
2019-02-24T15:23:26.200Z,28.80
2019-02-24T15:26:18.670Z,28.80
2019-02-24T15:29:11.935Z,28.80
2019-02-24T15:32:04.194Z,28.90
2019-02-24T15:34:57.019Z,28.80
2019-02-24T15:37:49.843Z,28.90
2019-02-24T15:40:42.926Z,28.90
2019-02-24T15:43:34.970Z,28.80
2019-02-24T15:46:27.419Z,28.80
2019-02-24T15:49:19.457Z,28.90
2019-02-24T15:52:12.261Z,28.90
2019-02-24T15:55:05.036Z,28.90
2019-02-24T15:57:59.314Z,28.90
2019-02-24T16:00:51.660Z,28.90
2019-02-24T16:03:43.984Z,28.90
2019-02-24T16:06:37.385Z,28.90
2019-02-24T16:09:29.913Z,28.90
2019-02-24T16:12:22.497Z,28.90
2019-02-24T16:15:16.176Z,28.90
2019-02-24T16:18:08.532Z,28.90
2019-02-24T16:21:00.882Z,28.90
2019-02-24T16:23:53.311Z,28.90
2019-02-24T16:26:47.669Z,28.90
2019-02-24T16:29:40.771Z,28.90
2019-02-24T16:32:33.194Z,28.90
2019-02-24T16:35:26.414Z,28.90
2019-02-24T16:38:19.276Z,28.90
2019-02-24T16:41:12.146Z,28.90
2019-02-24T16:44:05.206Z,28.90
2019-02-24T16:46:57.676Z,28.90
2019-02-24T16:49:50.322Z,28.90
2019-02-24T16:52:42.608Z,28.90
2019-02-24T16:55:35.174Z,28.90
2019-02-24T16:58:27.889Z,29.00
2019-02-24T17:01:20.437Z,28.90
2019-02-24T17:04:13.311Z,28.90
2019-02-24T17:07:05.675Z,29.00
2019-02-24T17:09:57.781Z,29.00
2019-02-24T17:12:50.954Z,28.90
2019-02-24T17:15:43.683Z,28.90
2019-02-24T17:18:36.570Z,29.00
2019-02-24T17:21:29.073Z,29.00
2019-02-24T17:24:21.409Z,29.00
2019-02-24T17:27:13.425Z,29.00
2019-02-24T17:30:06.266Z,29.00
2019-02-24T17:32:58.935Z,28.90
2019-02-24T17:35:51.201Z,29.00
2019-02-24T17:38:43.821Z,28.90
2019-02-24T17:41:36.074Z,29.00
2019-02-24T17:44:29.738Z,28.90
2019-02-24T17:47:22.296Z,29.00
2019-02-24T17:50:14.505Z,28.90
2019-02-24T17:53:06.686Z,28.90
2019-02-24T17:55:58.882Z,28.90
2019-02-24T17:58:51.585Z,28.90
2019-02-24T18:01:43.871Z,28.90
2019-02-24T18:04:36.009Z,28.90
2019-02-24T18:07:28.052Z,28.90
2019-02-24T18:10:21.237Z,28.90
2019-02-24T18:13:13.749Z,29.00
2019-02-24T18:16:06.386Z,29.00
2019-02-24T18:18:58.874Z,28.90
2019-02-24T18:21:51.669Z,29.00
2019-02-24T18:24:44.249Z,29.00
2019-02-24T18:27:37.128Z,29.00
2019-02-24T18:30:29.523Z,28.90
2019-02-24T18:33:21.883Z,29.00
2019-02-24T18:36:13.845Z,29.00
2019-02-24T18:39:07.548Z,28.90
2019-02-24T18:41:59.842Z,29.00
2019-02-24T18:44:52.630Z,28.90
2019-02-24T18:47:45.003Z,28.90
2019-02-24T18:50:37.584Z,28.90
2019-02-24T18:53:29.722Z,28.90
2019-02-24T18:56:22.661Z,28.90
2019-02-24T18:59:15.333Z,28.90
2019-02-24T19:02:07.965Z,28.90
2019-02-24T19:05:00.929Z,28.90
2019-02-24T19:07:54.146Z,28.90
2019-02-24T19:10:46.441Z,28.90
2019-02-24T19:13:38.788Z,28.90
2019-02-24T19:16:30.899Z,28.90
2019-02-24T19:19:25.808Z,28.90
2019-02-24T19:22:18.358Z,28.90
2019-02-24T19:25:10.778Z,28.90
2019-02-24T19:28:03.893Z,28.90
2019-02-24T19:30:56.264Z,28.90
2019-02-24T19:33:48.518Z,28.90
2019-02-24T19:36:41.179Z,28.90
2019-02-24T19:39:33.224Z,28.90
2019-02-24T19:42:25.362Z,28.90
2019-02-24T19:45:18.026Z,28.90
2019-02-24T19:48:10.420Z,28.90
2019-02-24T19:51:02.257Z,28.90
2019-02-24T19:53:54.479Z,28.90
2019-02-24T19:56:46.941Z,28.90
2019-02-24T19:59:39.339Z,28.90
2019-02-24T20:02:31.682Z,28.90
2019-02-24T20:05:24.773Z,28.90
2019-02-24T20:08:17.423Z,28.80
2019-02-24T20:11:09.986Z,28.80
2019-02-24T20:14:02.268Z,28.80
2019-02-24T20:16:54.335Z,28.80
2019-02-24T20:19:46.716Z,28.80
2019-02-24T20:22:38.797Z,28.80
2019-02-24T20:25:31.301Z,28.80
2019-02-24T20:28:23.394Z,28.80
2019-02-24T20:31:15.902Z,28.80
2019-02-24T20:34:08.410Z,28.80
2019-02-24T20:37:00.296Z,28.80
2019-02-24T20:39:52.965Z,28.80
2019-02-24T20:42:45.012Z,28.80
2019-02-24T20:45:37.426Z,28.80
2019-02-24T20:48:29.856Z,28.80
2019-02-24T20:51:22.414Z,28.80
2019-02-24T20:54:14.958Z,28.80
2019-02-24T20:57:07.104Z,28.80
2019-02-24T20:59:59.574Z,28.80
2019-02-24T21:02:51.675Z,28.80
2019-02-24T21:05:43.978Z,28.80
2019-02-24T21:08:36.133Z,28.80
2019-02-24T21:11:28.389Z,28.80
2019-02-24T21:14:21.005Z,28.80
2019-02-24T21:17:13.316Z,28.80
2019-02-24T21:20:05.747Z,28.80
2019-02-24T21:22:58.200Z,28.80
2019-02-24T21:25:50.522Z,28.80
2019-02-24T21:28:43.047Z,28.80
2019-02-24T21:31:35.576Z,28.80
2019-02-24T21:34:28.944Z,28.80
2019-02-24T21:37:21.195Z,28.80
2019-02-24T21:40:13.290Z,28.80
2019-02-24T21:43:05.342Z,28.70
2019-02-24T21:45:57.884Z,28.70
2019-02-24T21:48:50.302Z,28.80
2019-02-24T21:51:42.396Z,28.70
2019-02-24T21:54:35.893Z,28.70
2019-02-24T21:57:28.474Z,28.70
2019-02-24T22:00:22.106Z,28.70
2019-02-24T22:03:14.449Z,28.70
2019-02-24T22:06:07.187Z,28.70
2019-02-24T22:08:59.589Z,28.70
2019-02-24T22:11:51.914Z,28.70
2019-02-24T22:14:44.343Z,28.70
2019-02-24T22:17:36.698Z,28.70
2019-02-24T22:20:28.821Z,28.70
2019-02-24T22:23:21.169Z,28.70
2019-02-24T22:26:13.461Z,28.70
2019-02-24T22:29:06.316Z,28.60
2019-02-24T22:31:58.758Z,28.60
2019-02-24T22:34:51.099Z,28.70
2019-02-24T22:37:43.238Z,28.70
2019-02-24T22:40:35.403Z,28.60
2019-02-24T22:43:27.794Z,28.60
2019-02-24T22:46:20.507Z,28.60
2019-02-24T22:49:12.881Z,28.60
2019-02-24T22:52:05.142Z,28.60
2019-02-24T22:54:57.167Z,28.60
2019-02-24T22:57:49.597Z,28.60
2019-02-24T23:01:05.273Z,28.60
2019-02-24T23:04:07.533Z,28.60
2019-02-24T23:06:59.768Z,28.60
2019-02-24T23:09:52.401Z,28.60
2019-02-24T23:12:44.695Z,28.60
2019-02-24T23:15:37.008Z,28.60
2019-02-24T23:18:29.282Z,28.60
2019-02-24T23:21:21.396Z,28.60
2019-02-24T23:24:13.519Z,28.60
2019-02-24T23:27:05.997Z,28.60
2019-02-24T23:29:59.067Z,28.60
2019-02-24T23:32:51.388Z,28.60
2019-02-24T23:35:43.717Z,28.60
2019-02-24T23:38:36.095Z,28.60
2019-02-24T23:41:28.329Z,28.60
2019-02-24T23:44:20.777Z,28.60
2019-02-24T23:47:12.693Z,28.50
2019-02-24T23:50:05.049Z,28.50
2019-02-24T23:52:57.208Z,28.60
2019-02-24T23:55:49.733Z,28.50
2019-02-24T23:58:42.977Z,28.50
